Pevely, Missouri
Current Conditions -  °F | °C
As of 9:53 AM on Thursday 18 Dec 2014 (Local Time) from KCPS Reporting Station
Light Snow Light Snow  
Wind Chill: 27°   Ceiling: 1000
Heat Index: 32°   Visibility: 3mi
Dew Point: 27°   Wind: 5mph
Humidity: 82%   Direction: 50°NE
Pressure: 30.32"   Gusts: NA
Location:  38.28°N, 90.4°W
Report Text: KCPS 181553Z 05004KT 3SM -SN BKN010 BKN017 OVC047 00/M03 A3032 RMK AO2 SNE14B37 SLP272 P0000 T00001028
Loading
Personal Weather Stations






























Interactive Weather Map New forecast layout! Learn more

10-Day Weather Forecast

Advertisements
Track Severe Weather on mobile